Clifford Maersk — OYRO2 — position and weather

sailwx.info

Track history (hours):
 
Tides and Currents Weather Stations Pressure Air Temp Water Temp Dewpoint Dewpoint Depression Visibility Wind Speed Wind Dir Waves Ship Positions

Clifford Maersk

Last reported at 2014-Sep-17 10:33 UTC. Time now 2014-Sep-17 11:35 UTC.
Position N 30°26' E 122°43'.

Type: Ship (hazmat cat A). MMSI: 219840000.

Date/timePositionNaut miles runAvg speedWind from/ knotsBaromVisibWave heightAir tempDewpointWater temp
2014-Sep-17 10:33N 30°26' E 122°43'7 6.5
2014-Sep-17 09:33N 30°22' E 122°49'7 6.6
2014-Sep-17 08:31N 30°18' E 122°55'15 4.8
2014-Sep-17 05:26N 30°03' E 122°54'7 8.0
2014-Sep-17 04:30N 29°57' E 122°48'1010.5
2014-Sep-17 03:33N 29°50' E 122°40'1010.3
2014-Sep-17 02:33N 29°45' E 122°30'1110.6
2014-Sep-17 01:33N 29°46' E 122°17'1313.0
2014-Sep-17 00:33N 29°55' E 122°07'1313.2
2014-Sep-16 23:33N 29°57' E 121°52'1 1.3
2014-Sep-16 22:33N 29°57' E 121°50'0 0.0
2014-Sep-16 21:33N 29°57' E 121°50'0 0.0
2014-Sep-16 20:33N 29°57' E 121°50'0 0.0
2014-Sep-16 19:33N 29°57' E 121°50'0 0.0
2014-Sep-16 18:33N 29°57' E 121°50'0 0.0
2014-Sep-16 17:33N 29°57' E 121°50'0 0.0
2014-Sep-16 16:33N 29°57' E 121°50'0 0.0
2014-Sep-16 15:33N 29°57' E 121°50'0 0.0
2014-Sep-16 14:33N 29°57' E 121°50'0 0.0
2014-Sep-16 13:33N 29°57' E 121°50'0 0.0
2014-Sep-16 12:33N 29°57' E 121°50'0 0.0
2014-Sep-16 11:33N 29°57' E 121°50'0 0.0
2014-Sep-16 10:33N 29°57' E 121°50'0 0.0
2014-Sep-16 09:33N 29°57' E 121°50'0 0.0
2014-Sep-16 08:33N 29°57' E 121°50'1 1.1
2014-Sep-16 07:33N 29°58' E 121°51'6 6.3
2014-Sep-16 06:33N 29°58' E 121°58'10 9.8
2014-Sep-16 05:33N 29°56' E 122°09'1211.5
2014-Sep-16 04:33N 29°46' E 122°17'1010.4
2014-Sep-16 03:33N 29°45' E 122°29'10 9.3
2014-Sep-16 02:32N 29°47' E 122°40'10 9.9
2014-Sep-16 01:33N 29°48' E 122°50'21 9.1
2014-Sep-15 23:12N 29°52' E 123°15'6 7.2
2014-Sep-15 22:25N 29°53' E 123°21'6 6.9
2014-Sep-15 21:31N 29°54' E 123°28'10 7.3
2014-Sep-15 20:11N 29°56' E 123°39'13 7.6
2014-Sep-15 18:33N 29°57' E 123°54'  
2014-Sep-12 21:08N 34°13' E 138°10'7112.6
2014-Sep-12 15:33N 34°51' E 139°22'1412.5
2014-Sep-12 14:25N 34°60' E 139°35'1112.4
2014-Sep-12 13:33N 35°08' E 139°44'1111.0
2014-Sep-12 12:33N 35°19' E 139°43'6 5.5
2014-Sep-12 11:31N 35°24' E 139°41'0 0.0
2014-Sep-12 10:31N 35°24' E 139°41'0 0.0
2014-Sep-12 09:31N 35°24' E 139°41'0 0.0
2014-Sep-12 08:28N 35°24' E 139°41'0 0.0
2014-Sep-12 07:31N 35°24' E 139°41'0 0.0
2014-Sep-12 06:31N 35°24' E 139°41'0 0.0
2014-Sep-12 05:31N 35°24' E 139°41'0 0.0
2014-Sep-12 04:31N 35°24' E 139°41'0 0.0
2014-Sep-12 03:31N 35°24' E 139°41'0 0.0
2014-Sep-12 02:31N 35°24' E 139°41'0 0.0
2014-Sep-12 01:31N 35°24' E 139°41'0 0.0
2014-Sep-12 00:31N 35°24' E 139°41'0 0.0
2014-Sep-11 23:31N 35°24' E 139°41'1 1.1
2014-Sep-11 22:33N 35°23' E 139°41'1110.8
2014-Sep-11 21:34N 35°13' E 139°47'9 8.5
2014-Sep-11 20:33N 35°05' E 139°43'243 4.8
2014-Sep-09 18:07N 33°47' E 135°04'814.6
2014-Sep-09 17:34N 33°54' E 134°59'1515.0
2014-Sep-09 16:33N 34°09' E 134°57'1616.1
2014-Sep-09 15:33N 34°24' E 135°02'1818.0
2014-Sep-09 14:33N 34°38' E 135°16'3 2.7
2014-Sep-09 13:31N 34°41' E 135°16'0 0.0
2014-Sep-09 12:31N 34°41' E 135°16'0 0.0
2014-Sep-09 11:31N 34°41' E 135°16'0 0.0
2014-Sep-09 10:31N 34°41' E 135°16'0 0.0
2014-Sep-09 09:31N 34°41' E 135°16'0 0.0
2014-Sep-09 08:31N 34°41' E 135°16'0 0.0
2014-Sep-09 07:25N 34°41' E 135°16'0 0.0
2014-Sep-09 06:25N 34°41' E 135°16'0 0.0
2014-Sep-09 05:25N 34°41' E 135°16'0 0.0
2014-Sep-09 04:31N 34°41' E 135°16'0 0.0
2014-Sep-09 03:31N 34°41' E 135°16'0 0.0
2014-Sep-09 02:25N 34°41' E 135°16'0 0.0
2014-Sep-09 01:31N 34°41' E 135°16'0 0.0
2014-Sep-09 00:25N 34°41' E 135°16'0 0.0
2014-Sep-08 23:31N 34°41' E 135°16'1 0.7
2014-Sep-08 22:33N 34°40' E 135°15'6 6.5
2014-Sep-08 21:33N 34°34' E 135°14'1212.1
2014-Sep-08 20:32N 34°24' E 135°05'1111.7
2014-Sep-08 19:33N 34°14' E 134°59'8 7.6
2014-Sep-08 18:34N 34°06' E 134°59'7 7.3
2014-Sep-08 17:33N 33°59' E 134°56'  
Track history (hours):
 
Tides and Currents Weather Stations Pressure Air Temp Water Temp Dewpoint Dewpoint Depression Visibility Wind Speed Wind Dir Waves Ship Positions

Clifford Maersk

Last reported at 2014-Sep-17 10:33 UTC. Time now 2014-Sep-17 11:35 UTC.
Position N 30°26' E 122°43'.

Type: Ship (hazmat cat A). MMSI: 219840000.

Date/timePositionNaut miles runAvg speedWind from/ knotsBaromVisibWave heightAir tempDewpointWater temp
2014-Sep-17 10:33N 30°26' E 122°43'7 6.5
2014-Sep-17 09:33N 30°22' E 122°49'7 6.6
2014-Sep-17 08:31N 30°18' E 122°55'15 4.8
2014-Sep-17 05:26N 30°03' E 122°54'7 8.0
2014-Sep-17 04:30N 29°57' E 122°48'1010.5
2014-Sep-17 03:33N 29°50' E 122°40'1010.3
2014-Sep-17 02:33N 29°45' E 122°30'1110.6
2014-Sep-17 01:33N 29°46' E 122°17'1313.0
2014-Sep-17 00:33N 29°55' E 122°07'1313.2
2014-Sep-16 23:33N 29°57' E 121°52'1 1.3
2014-Sep-16 22:33N 29°57' E 121°50'0 0.0
2014-Sep-16 21:33N 29°57' E 121°50'0 0.0
2014-Sep-16 20:33N 29°57' E 121°50'0 0.0
2014-Sep-16 19:33N 29°57' E 121°50'0 0.0
2014-Sep-16 18:33N 29°57' E 121°50'0 0.0
2014-Sep-16 17:33N 29°57' E 121°50'0 0.0
2014-Sep-16 16:33N 29°57' E 121°50'0 0.0
2014-Sep-16 15:33N 29°57' E 121°50'0 0.0
2014-Sep-16 14:33N 29°57' E 121°50'0 0.0
2014-Sep-16 13:33N 29°57' E 121°50'0 0.0
2014-Sep-16 12:33N 29°57' E 121°50'0 0.0
2014-Sep-16 11:33N 29°57' E 121°50'0 0.0
2014-Sep-16 10:33N 29°57' E 121°50'0 0.0
2014-Sep-16 09:33N 29°57' E 121°50'0 0.0
2014-Sep-16 08:33N 29°57' E 121°50'1 1.1
2014-Sep-16 07:33N 29°58' E 121°51'6 6.3
2014-Sep-16 06:33N 29°58' E 121°58'10 9.8
2014-Sep-16 05:33N 29°56' E 122°09'1211.5
2014-Sep-16 04:33N 29°46' E 122°17'1010.4
2014-Sep-16 03:33N 29°45' E 122°29'10 9.3
2014-Sep-16 02:32N 29°47' E 122°40'10 9.9
2014-Sep-16 01:33N 29°48' E 122°50'21 9.1
2014-Sep-15 23:12N 29°52' E 123°15'6 7.2
2014-Sep-15 22:25N 29°53' E 123°21'6 6.9
2014-Sep-15 21:31N 29°54' E 123°28'10 7.3
2014-Sep-15 20:11N 29°56' E 123°39'13 7.6
2014-Sep-15 18:33N 29°57' E 123°54'  
2014-Sep-12 21:08N 34°13' E 138°10'7112.6
2014-Sep-12 15:33N 34°51' E 139°22'1412.5
2014-Sep-12 14:25N 34°60' E 139°35'1112.4
2014-Sep-12 13:33N 35°08' E 139°44'1111.0
2014-Sep-12 12:33N 35°19' E 139°43'6 5.5
2014-Sep-12 11:31N 35°24' E 139°41'0 0.0
2014-Sep-12 10:31N 35°24' E 139°41'0 0.0
2014-Sep-12 09:31N 35°24' E 139°41'0 0.0
2014-Sep-12 08:28N 35°24' E 139°41'0 0.0
2014-Sep-12 07:31N 35°24' E 139°41'0 0.0
2014-Sep-12 06:31N 35°24' E 139°41'0 0.0
2014-Sep-12 05:31N 35°24' E 139°41'0 0.0
2014-Sep-12 04:31N 35°24' E 139°41'0 0.0
2014-Sep-12 03:31N 35°24' E 139°41'0 0.0
2014-Sep-12 02:31N 35°24' E 139°41'0 0.0
2014-Sep-12 01:31N 35°24' E 139°41'0 0.0
2014-Sep-12 00:31N 35°24' E 139°41'0 0.0
2014-Sep-11 23:31N 35°24' E 139°41'1 1.1
2014-Sep-11 22:33N 35°23' E 139°41'1110.8
2014-Sep-11 21:34N 35°13' E 139°47'9 8.5
2014-Sep-11 20:33N 35°05' E 139°43'243 4.8
2014-Sep-09 18:07N 33°47' E 135°04'814.6
2014-Sep-09 17:34N 33°54' E 134°59'1515.0
2014-Sep-09 16:33N 34°09' E 134°57'1616.1
2014-Sep-09 15:33N 34°24' E 135°02'1818.0
2014-Sep-09 14:33N 34°38' E 135°16'3 2.7
2014-Sep-09 13:31N 34°41' E 135°16'0 0.0
2014-Sep-09 12:31N 34°41' E 135°16'0 0.0
2014-Sep-09 11:31N 34°41' E 135°16'0 0.0
2014-Sep-09 10:31N 34°41' E 135°16'0 0.0
2014-Sep-09 09:31N 34°41' E 135°16'0 0.0
2014-Sep-09 08:31N 34°41' E 135°16'0 0.0
2014-Sep-09 07:25N 34°41' E 135°16'0 0.0
2014-Sep-09 06:25N 34°41' E 135°16'0 0.0
2014-Sep-09 05:25N 34°41' E 135°16'0 0.0
2014-Sep-09 04:31N 34°41' E 135°16'0 0.0
2014-Sep-09 03:31N 34°41' E 135°16'0 0.0
2014-Sep-09 02:25N 34°41' E 135°16'0 0.0
2014-Sep-09 01:31N 34°41' E 135°16'0 0.0
2014-Sep-09 00:25N 34°41' E 135°16'0 0.0
2014-Sep-08 23:31N 34°41' E 135°16'1 0.7
2014-Sep-08 22:33N 34°40' E 135°15'6 6.5
2014-Sep-08 21:33N 34°34' E 135°14'1212.1
2014-Sep-08 20:32N 34°24' E 135°05'1111.7
2014-Sep-08 19:33N 34°14' E 134°59'8 7.6
2014-Sep-08 18:34N 34°06' E 134°59'7 7.3
2014-Sep-08 17:33N 33°59' E 134°56'  

Dump ship's entire track history